createdAt,value
2019-05-05T00:02:57.790Z,3.52
2019-05-05T00:11:35.223Z,3.41
2019-05-05T00:14:44.239Z,3.32
2019-05-05T00:17:34.248Z,3.32
2019-05-05T00:20:22.259Z,3.21
2019-05-05T00:23:09.898Z,3.26
2019-05-05T00:25:57.643Z,3.14
2019-05-05T00:28:45.219Z,3.26
2019-05-05T00:31:34.833Z,3.33
2019-05-05T00:34:24.327Z,3.19
2019-05-05T00:36:52.282Z,3.20
2019-05-05T00:39:20.681Z,3.24
2019-05-05T00:42:08.691Z,3.27
2019-05-05T00:44:56.431Z,3.17
2019-05-05T00:50:52.365Z,3.23
2019-05-05T00:54:00.675Z,3.22
2019-05-05T00:56:48.319Z,3.20
2019-05-05T00:59:36.065Z,3.19
2019-05-05T01:02:44.811Z,3.16
2019-05-05T01:05:52.981Z,3.18
2019-05-05T01:14:05.187Z,3.02
2019-05-05T01:16:35.257Z,2.98
2019-05-05T01:19:24.324Z,3.06
2019-05-05T01:24:40.519Z,3.01
2019-05-05T01:27:28.499Z,3.07
2019-05-05T01:41:21.766Z,2.75
2019-05-05T01:43:50.158Z,2.80
2019-05-05T01:46:18.563Z,2.69
2019-05-05T01:51:55.312Z,2.73
2019-05-05T01:54:24.970Z,2.64
2019-05-05T01:57:34.442Z,2.57
2019-05-05T02:00:45.192Z,2.45
2019-05-05T02:03:35.037Z,2.28
2019-05-05T02:08:57.572Z,2.19
2019-05-05T02:11:45.420Z,2.28
2019-05-05T02:14:15.672Z,2.28
2019-05-05T02:16:45.478Z,2.37
2019-05-05T02:19:14.359Z,2.30
2019-05-05T02:21:45.356Z,2.31
2019-05-05T02:24:14.535Z,2.11
2019-05-05T02:29:37.301Z,2.23
2019-05-05T02:32:45.199Z,2.29
2019-05-05T02:38:15.367Z,2.54
2019-05-05T02:41:25.298Z,2.59
2019-05-05T02:46:46.024Z,2.52
2019-05-05T02:51:45.028Z,2.63
2019-05-05T02:54:13.953Z,2.65
2019-05-05T02:56:45.835Z,2.55
2019-05-05T02:59:17.607Z,2.71
2019-05-05T03:01:47.792Z,2.80
2019-05-05T03:04:16.614Z,2.63
2019-05-05T03:06:48.077Z,2.75
2019-05-05T03:09:18.506Z,2.75
2019-05-05T03:11:49.070Z,2.73
2019-05-05T03:14:19.814Z,2.80
2019-05-05T03:16:49.362Z,2.88
2019-05-05T03:19:18.794Z,2.94
2019-05-05T03:21:47.371Z,2.87
2019-05-05T03:24:16.310Z,2.89
2019-05-05T03:26:44.711Z,2.84
2019-05-05T03:29:17.658Z,2.83
2019-05-05T03:31:46.410Z,2.81
2019-05-05T03:34:16.309Z,2.91
2019-05-05T03:36:45.029Z,2.84
2019-05-05T03:39:20.755Z,2.85
2019-05-05T03:41:54.376Z,2.56
2019-05-05T03:44:24.402Z,2.50
2019-05-05T03:46:54.352Z,2.54
2019-05-05T03:49:24.351Z,2.44
2019-05-05T03:51:54.322Z,2.55
2019-05-05T03:54:23.840Z,2.56
2019-05-05T03:56:54.521Z,2.61
2019-05-05T03:59:24.332Z,2.65
2019-05-05T04:01:54.672Z,2.71
2019-05-05T04:04:27.459Z,2.78
2019-05-05T04:06:58.071Z,2.76
2019-05-05T04:09:26.832Z,2.92
2019-05-05T04:11:55.239Z,2.98
2019-05-05T04:14:25.045Z,3.07
2019-05-05T04:16:55.211Z,3.14
2019-05-05T04:19:27.981Z,3.10
2019-05-05T04:21:56.543Z,3.17
2019-05-05T04:24:24.932Z,3.28
2019-05-05T04:26:54.562Z,3.34
2019-05-05T04:29:24.411Z,3.39
2019-05-05T04:31:54.071Z,3.47
2019-05-05T04:34:24.120Z,3.53
2019-05-05T04:36:54.525Z,3.64
2019-05-05T04:39:23.699Z,3.67
2019-05-05T04:41:52.153Z,3.81
2019-05-05T04:44:20.596Z,3.72
2019-05-05T04:46:50.634Z,3.41
2019-05-05T04:49:20.670Z,3.63
2019-05-05T04:51:50.713Z,3.93
2019-05-05T04:54:29.725Z,4.09
2019-05-05T04:56:58.125Z,4.09
2019-05-05T04:59:26.528Z,4.23
2019-05-05T05:01:56.569Z,4.32
2019-05-05T05:04:33.647Z,4.22
2019-05-05T05:07:04.625Z,4.34
2019-05-05T05:09:34.173Z,4.42
2019-05-05T05:12:04.061Z,4.53
2019-05-05T05:14:33.723Z,5.02
2019-05-05T05:17:03.898Z,6.42
2019-05-05T05:19:33.524Z,8.53
2019-05-05T05:22:04.667Z,10.73
2019-05-05T05:24:34.160Z,12.39
2019-05-05T05:27:02.224Z,14.31
2019-05-05T05:29:30.687Z,15.54
2019-05-05T05:31:59.189Z,16.57
2019-05-05T05:34:27.596Z,17.72
2019-05-05T05:36:55.993Z,18.28
2019-05-05T05:39:33.574Z,19.84
2019-05-05T05:42:04.323Z,20.82
2019-05-05T05:44:39.765Z,21.71
2019-05-05T05:47:14.072Z,22.34
2019-05-05T05:50:00.510Z,22.92
2019-05-05T05:52:28.913Z,24.14
2019-05-05T05:54:57.308Z,24.92
2019-05-05T05:57:25.699Z,25.62
2019-05-05T05:59:54.849Z,26.51
2019-05-05T06:02:24.180Z,27.29
2019-05-05T06:04:53.945Z,26.70
2019-05-05T06:07:24.430Z,26.80
2019-05-05T06:09:54.173Z,27.54
2019-05-05T06:12:24.532Z,28.08
2019-05-05T06:14:53.697Z,28.63
2019-05-05T06:17:23.758Z,29.15
2019-05-05T06:19:53.430Z,29.90
2019-05-05T06:22:29.209Z,30.28
2019-05-05T06:24:53.972Z,30.64
2019-05-05T06:27:23.601Z,31.34
2019-05-05T06:29:54.116Z,31.60
2019-05-05T06:32:23.821Z,31.12
2019-05-05T06:34:53.500Z,31.13
2019-05-05T06:37:23.786Z,31.30
2019-05-05T06:39:54.398Z,31.52
2019-05-05T06:42:30.290Z,31.97
2019-05-05T06:45:04.151Z,32.18
2019-05-05T06:47:34.032Z,32.08
2019-05-05T06:50:03.671Z,32.07
2019-05-05T06:52:43.766Z,32.37
2019-05-05T06:55:03.723Z,32.25
2019-05-05T06:57:34.206Z,32.28
2019-05-05T07:00:03.656Z,32.05
2019-05-05T07:02:34.182Z,32.65
2019-05-05T07:05:04.085Z,31.96
2019-05-05T07:07:34.271Z,31.99
2019-05-05T07:10:03.735Z,31.54
2019-05-05T07:12:34.552Z,31.73
2019-05-05T07:15:04.248Z,32.09
2019-05-05T07:17:33.793Z,32.22
2019-05-05T07:20:04.354Z,32.16
2019-05-05T07:22:34.667Z,32.34
2019-05-05T07:25:04.710Z,32.65
2019-05-05T07:27:33.938Z,32.19
2019-05-05T07:30:04.603Z,31.83
2019-05-05T07:32:33.835Z,31.54
2019-05-05T07:35:21.727Z,31.42
2019-05-05T07:37:50.228Z,30.79
2019-05-05T07:40:18.627Z,30.57
2019-05-05T07:42:47.024Z,30.37
2019-05-05T07:45:22.455Z,29.97
2019-05-05T07:47:47.512Z,29.40
2019-05-05T07:50:28.499Z,29.18
2019-05-05T07:52:46.984Z,28.41
2019-05-05T07:55:15.526Z,28.90
2019-05-05T07:57:43.929Z,28.73
2019-05-05T08:00:14.648Z,28.57
2019-05-05T08:02:43.929Z,28.13
2019-05-05T08:05:14.110Z,28.37
2019-05-05T08:07:44.506Z,27.96
2019-05-05T08:10:13.654Z,28.00
2019-05-05T08:12:43.698Z,28.11
2019-05-05T08:15:14.710Z,27.48
2019-05-05T08:18:00.218Z,27.67
2019-05-05T08:20:35.792Z,27.59
2019-05-05T08:23:06.410Z,27.39
2019-05-05T08:25:45.377Z,27.37
2019-05-05T08:28:23.939Z,26.47
2019-05-05T08:31:03.960Z,26.37
2019-05-05T08:33:33.617Z,26.33
2019-05-05T08:36:04.320Z,26.06
2019-05-05T08:38:32.191Z,25.33
2019-05-05T08:41:00.590Z,24.43
2019-05-05T08:43:28.988Z,24.03
2019-05-05T08:45:57.397Z,23.17
2019-05-05T08:48:25.796Z,22.75
2019-05-05T08:50:54.278Z,22.50
2019-05-05T08:53:24.338Z,22.44
2019-05-05T08:55:54.615Z,21.47
2019-05-05T08:58:23.799Z,21.13
2019-05-05T09:00:53.691Z,18.84
2019-05-05T09:03:24.208Z,18.60
2019-05-05T09:05:54.229Z,18.40
2019-05-05T09:08:24.124Z,18.27
2019-05-05T09:10:55.016Z,17.79
2019-05-05T09:13:24.679Z,17.88
2019-05-05T09:15:54.416Z,18.08
2019-05-05T09:18:24.584Z,17.68
2019-05-05T09:20:53.778Z,17.82
2019-05-05T09:23:24.055Z,18.03
2019-05-05T09:25:57.086Z,17.88
2019-05-05T09:28:34.097Z,18.31
2019-05-05T09:31:04.150Z,17.96
2019-05-05T09:33:33.902Z,17.48
2019-05-05T09:36:04.524Z,17.45
2019-05-05T09:38:34.516Z,17.00
2019-05-05T09:41:03.835Z,16.98
2019-05-05T09:43:34.356Z,16.92
2019-05-05T09:46:03.939Z,15.93
2019-05-05T09:48:33.577Z,15.56
2019-05-05T09:51:04.195Z,15.55
2019-05-05T09:53:34.270Z,15.85
2019-05-05T09:56:04.045Z,16.09
2019-05-05T09:58:34.599Z,16.43
2019-05-05T10:01:03.980Z,17.00
2019-05-05T10:03:34.097Z,17.33
2019-05-05T10:06:04.694Z,17.73
2019-05-05T10:08:34.126Z,18.17
2019-05-05T10:11:04.084Z,18.50
2019-05-05T10:13:33.607Z,18.65
2019-05-05T10:19:17.169Z,18.86
2019-05-05T10:21:45.575Z,18.84
2019-05-05T10:27:47.382Z,17.66
2019-05-05T10:30:30.962Z,17.17
2019-05-05T10:32:59.372Z,16.09
2019-05-05T10:38:23.555Z,14.95
2019-05-05T10:41:33.793Z,14.27
2019-05-05T10:44:22.030Z,14.22
2019-05-05T10:46:50.441Z,13.90
2019-05-05T10:49:37.957Z,14.20
2019-05-05T10:52:06.376Z,14.13
2019-05-05T10:54:44.111Z,14.21
2019-05-05T10:57:04.938Z,14.72
2019-05-05T10:59:34.377Z,15.06
2019-05-05T11:04:58.606Z,16.49
2019-05-05T11:07:46.422Z,16.60
2019-05-05T11:10:54.736Z,16.41
2019-05-05T11:16:18.002Z,16.33
2019-05-05T11:22:34.721Z,16.11
2019-05-05T11:25:44.656Z,16.48
2019-05-05T11:31:07.544Z,15.55
2019-05-05T11:36:50.079Z,15.37
2019-05-05T11:39:37.601Z,15.96
2019-05-05T11:44:40.004Z,15.98
2019-05-05T11:47:27.685Z,15.02
2019-05-05T11:55:37.113Z,12.16
2019-05-05T11:58:05.561Z,11.75
2019-05-05T12:00:54.483Z,11.67
2019-05-05T12:06:18.486Z,11.29
2019-05-05T12:09:06.041Z,10.95
2019-05-05T12:11:54.585Z,10.93
2019-05-05T12:16:59.172Z,11.08
2019-05-05T12:22:15.023Z,11.24
2019-05-05T12:27:51.656Z,11.43
2019-05-05T12:33:07.514Z,11.91
2019-05-05T12:38:44.109Z,12.85
2019-05-05T12:41:21.017Z,13.39
2019-05-05T12:43:49.529Z,13.60
2019-05-05T12:46:37.050Z,13.83
2019-05-05T12:51:41.048Z,13.73
2019-05-05T12:54:28.641Z,13.75
2019-05-05T12:57:16.292Z,13.79
2019-05-05T12:59:44.697Z,13.84
2019-05-05T13:02:32.479Z,13.87
2019-05-05T13:05:00.879Z,13.99
2019-05-05T13:07:29.297Z,13.99
2019-05-05T13:09:57.777Z,13.94
2019-05-05T13:12:45.550Z,14.22
2019-05-05T13:15:53.857Z,14.26
2019-05-05T13:18:24.449Z,13.87
2019-05-05T13:26:55.035Z,13.39
2019-05-05T13:31:58.062Z,13.63
2019-05-05T13:34:26.594Z,13.87
2019-05-05T13:36:55.006Z,13.81
2019-05-05T13:39:24.721Z,13.88
2019-05-05T13:41:53.974Z,14.05
2019-05-05T13:44:30.201Z,14.45
2019-05-05T13:46:58.597Z,14.38
2019-05-05T13:49:31.377Z,14.37
2019-05-05T13:52:01.408Z,14.38
2019-05-05T13:54:29.816Z,14.69
2019-05-05T13:56:58.217Z,14.94
2019-05-05T13:59:26.633Z,15.03
2019-05-05T14:01:55.035Z,14.92
2019-05-05T14:04:23.445Z,15.18
2019-05-05T14:06:51.851Z,15.59
2019-05-05T14:09:20.435Z,15.68
2019-05-05T14:11:48.929Z,15.56
2019-05-05T14:14:17.347Z,14.67
2019-05-05T14:16:45.747Z,13.90
2019-05-05T14:19:14.749Z,13.48
2019-05-05T14:21:44.630Z,13.67
2019-05-05T14:24:14.791Z,13.68
2019-05-05T14:26:43.190Z,13.63
2019-05-05T14:29:14.672Z,13.70
2019-05-05T14:31:44.475Z,13.82
2019-05-05T14:34:16.905Z,13.75
2019-05-05T14:36:46.944Z,13.56
2019-05-05T14:39:16.990Z,13.52
2019-05-05T14:41:45.390Z,13.62
2019-05-05T14:44:14.113Z,13.97
2019-05-05T14:46:44.487Z,14.48
2019-05-05T14:51:46.532Z,14.25
2019-05-05T14:54:34.234Z,14.68
2019-05-05T15:00:50.908Z,14.57
2019-05-05T15:03:38.551Z,14.38
2019-05-05T15:09:03.847Z,14.69
2019-05-05T15:11:50.788Z,14.59
2019-05-05T15:16:54.282Z,14.66
2019-05-05T15:20:03.052Z,15.03
2019-05-05T15:25:18.914Z,14.45
2019-05-05T15:27:47.307Z,14.52
2019-05-05T15:30:55.630Z,14.47
2019-05-05T15:33:24.439Z,14.55
2019-05-05T15:36:34.067Z,14.49
2019-05-05T15:41:49.913Z,14.27
2019-05-05T15:44:18.317Z,14.09
2019-05-05T15:46:48.591Z,14.29
2019-05-05T15:49:35.972Z,14.29
2019-05-05T15:52:07.053Z,14.50
2019-05-05T15:54:34.500Z,14.21
2019-05-05T15:57:23.982Z,14.17
2019-05-05T16:00:11.529Z,13.72
2019-05-05T16:02:59.261Z,13.64
2019-05-05T16:05:46.911Z,13.75
2019-05-05T16:08:15.313Z,14.14
2019-05-05T16:10:46.492Z,14.11
2019-05-05T16:13:14.008Z,13.97
2019-05-05T16:24:16.045Z,13.57
2019-05-05T16:27:08.199Z,13.82
2019-05-05T16:29:33.735Z,13.82
2019-05-05T16:32:22.220Z,13.82
2019-05-05T16:35:10.603Z,13.71
2019-05-05T16:40:26.444Z,13.36
2019-05-05T16:43:16.737Z,13.26
2019-05-05T16:48:18.135Z,13.45
2019-05-05T16:56:39.623Z,13.19
2019-05-05T16:59:08.026Z,13.12
2019-05-05T17:04:12.147Z,12.90
2019-05-05T17:06:41.009Z,12.85
2019-05-05T17:09:28.657Z,12.74
2019-05-05T17:12:18.234Z,12.67
2019-05-05T17:15:05.424Z,12.46
2019-05-05T17:17:54.025Z,12.40
2019-05-05T17:21:01.612Z,12.42
2019-05-05T17:23:49.117Z,12.35
2019-05-05T17:26:17.537Z,12.32
2019-05-05T17:28:45.943Z,12.55
2019-05-05T17:31:34.030Z,12.41
2019-05-05T17:34:24.746Z,12.19
2019-05-05T17:36:53.678Z,12.41
2019-05-05T17:45:07.047Z,12.21
2019-05-05T17:47:54.569Z,12.19
2019-05-05T17:53:31.168Z,11.55
2019-05-05T17:58:35.221Z,11.48
2019-05-05T18:01:23.856Z,11.58
2019-05-05T18:03:54.499Z,11.43
2019-05-05T18:06:44.066Z,11.55
2019-05-05T18:12:20.722Z,11.09
2019-05-05T18:17:38.222Z,10.90
2019-05-05T18:20:46.533Z,10.55
2019-05-05T18:23:14.937Z,10.42
2019-05-05T18:26:04.113Z,10.01
2019-05-05T18:28:34.059Z,9.73
2019-05-05T18:31:02.709Z,9.59
2019-05-05T18:33:31.110Z,9.63
2019-05-05T18:35:59.507Z,9.61
2019-05-05T18:38:47.030Z,9.65
2019-05-05T18:44:44.409Z,9.79
2019-05-05T18:50:10.947Z,9.41
2019-05-05T18:52:58.598Z,9.26
2019-05-05T18:55:27.005Z,9.07
2019-05-05T18:58:26.921Z,9.30
2019-05-05T19:01:03.931Z,9.25
2019-05-05T19:03:51.481Z,9.24
2019-05-05T19:09:53.829Z,9.22
2019-05-05T19:12:38.195Z,9.13
2019-05-05T19:15:46.493Z,9.27
2019-05-05T19:23:51.679Z,9.10
2019-05-05T19:26:20.081Z,9.18
2019-05-05T19:33:57.612Z,9.10
2019-05-05T19:36:27.517Z,9.04
2019-05-05T19:38:56.124Z,9.08
2019-05-05T19:41:46.765Z,9.14
2019-05-05T19:44:14.696Z,9.07
2019-05-05T19:47:05.655Z,9.13
2019-05-05T19:49:33.796Z,9.06
2019-05-05T19:52:24.004Z,9.06
2019-05-05T19:54:54.680Z,8.97
2019-05-05T19:57:22.928Z,8.94
2019-05-05T20:00:10.637Z,8.79
2019-05-05T20:02:39.037Z,8.74
2019-05-05T20:05:47.343Z,8.61
2019-05-05T20:08:15.752Z,8.52
2019-05-05T20:11:04.878Z,8.46
2019-05-05T20:13:33.622Z,8.39
2019-05-05T20:16:40.402Z,8.26
2019-05-05T20:22:02.072Z,7.96
2019-05-05T20:24:30.486Z,8.06
2019-05-05T20:26:59.024Z,8.06
2019-05-05T20:29:46.683Z,8.01
2019-05-05T20:35:44.142Z,7.91
2019-05-05T20:41:26.284Z,7.81
2019-05-05T20:46:28.965Z,7.59
2019-05-05T20:48:57.366Z,7.55
2019-05-05T20:52:05.784Z,7.48
2019-05-05T20:54:34.272Z,7.46
2019-05-05T20:57:21.915Z,7.40
2019-05-05T20:59:50.402Z,7.32
2019-05-05T21:02:18.795Z,7.37
2019-05-05T21:05:06.322Z,7.30
2019-05-05T21:07:34.818Z,7.22
2019-05-05T21:12:58.183Z,7.13
2019-05-05T21:15:45.702Z,7.18
2019-05-05T21:18:14.474Z,7.05
2019-05-05T21:24:11.707Z,7.04
2019-05-05T21:26:59.219Z,6.96
2019-05-05T21:29:38.539Z,6.86
2019-05-05T21:31:57.760Z,6.81
2019-05-05T21:34:45.416Z,6.81
2019-05-05T21:37:14.270Z,6.72
2019-05-05T21:39:45.449Z,6.66
2019-05-05T21:45:20.759Z,6.62
2019-05-05T21:48:08.411Z,6.57
2019-05-05T21:50:55.936Z,6.60
2019-05-05T21:54:04.432Z,6.60
2019-05-05T21:59:23.654Z,6.52
2019-05-05T22:01:52.021Z,6.43
2019-05-05T22:04:39.674Z,6.36
2019-05-05T22:07:08.074Z,6.37
2019-05-05T22:09:36.524Z,6.27
2019-05-05T22:14:54.797Z,6.22
2019-05-05T22:17:22.480Z,6.14
2019-05-05T22:20:10.009Z,6.10
2019-05-05T22:28:01.161Z,6.05
2019-05-05T22:30:29.570Z,6.02
2019-05-05T22:33:17.085Z,6.04
2019-05-05T22:35:45.495Z,6.00
2019-05-05T22:38:33.974Z,5.97
2019-05-05T22:41:03.258Z,5.92
2019-05-05T22:46:38.216Z,5.75
2019-05-05T22:49:06.612Z,5.64
2019-05-05T22:51:54.283Z,5.72
2019-05-05T22:54:41.750Z,5.67
2019-05-05T23:05:50.151Z,5.62
2019-05-05T23:08:18.786Z,5.61
2019-05-05T23:10:48.669Z,5.67
2019-05-05T23:13:36.311Z,5.61
2019-05-05T23:16:26.432Z,5.51
2019-05-05T23:18:54.668Z,5.41
2019-05-05T23:21:43.857Z,5.30
2019-05-05T23:24:31.381Z,5.16
2019-05-05T23:26:59.790Z,5.12
2019-05-05T23:29:28.198Z,5.03
2019-05-05T23:31:56.604Z,5.05
2019-05-05T23:35:04.916Z,4.98
2019-05-05T23:37:52.438Z,5.02
2019-05-05T23:41:00.793Z,5.14
2019-05-05T23:43:29.192Z,5.19
2019-05-05T23:46:16.712Z,5.32
2019-05-05T23:48:45.117Z,5.27
2019-05-05T23:51:14.054Z,5.32
2019-05-05T23:54:24.679Z,5.04
2019-05-05T23:56:53.939Z,5.08
2019-05-05T23:59:44.113Z,5.04
